sensor_id;sensor_type;location;lat;lon;timestamp;pressure;altitude;pressure_sealevel;temperature;humidity
49949;BME280;35840;45.982;8.890;2023-02-08T00:00:34;100283.66;;;1.82;60.29
49949;BME280;35840;45.982;8.890;2023-02-08T00:03:01;100270.91;;;1.71;60.53
49949;BME280;35840;45.982;8.890;2023-02-08T00:05:27;100275.13;;;1.66;60.61
49949;BME280;35840;45.982;8.890;2023-02-08T00:07:54;100277.56;;;1.54;60.91
49949;BME280;35840;45.982;8.890;2023-02-08T00:10:21;100279.31;;;1.66;60.62
49949;BME280;35840;45.982;8.890;2023-02-08T00:12:47;100277.63;;;1.62;60.86
49949;BME280;35840;45.982;8.890;2023-02-08T00:15:14;100286.09;;;1.70;60.49
49949;BME280;35840;45.982;8.890;2023-02-08T00:17:41;100284.44;;;1.69;59.94
49949;BME280;35840;45.982;8.890;2023-02-08T00:20:08;100279.25;;;1.57;60.26
49949;BME280;35840;45.982;8.890;2023-02-08T00:22:35;100287.69;;;1.52;60.61
49949;BME280;35840;45.982;8.890;2023-02-08T00:25:02;100297.91;;;1.63;60.63
49949;BME280;35840;45.982;8.890;2023-02-08T00:27:28;100302.94;;;1.59;60.80
49949;BME280;35840;45.982;8.890;2023-02-08T00:29:55;100254.56;;;1.29;60.84
49949;BME280;35840;45.982;8.890;2023-02-08T00:32:22;100298.63;;;1.50;61.54
49949;BME280;35840;45.982;8.890;2023-02-08T00:34:49;100302.84;;;1.45;61.28
49949;BME280;35840;45.982;8.890;2023-02-08T00:37:16;100301.06;;;1.36;61.53
49949;BME280;35840;45.982;8.890;2023-02-08T00:39:43;100304.28;;;1.18;61.82
49949;BME280;35840;45.982;8.890;2023-02-08T00:42:09;100300.78;;;1.05;62.48
49949;BME280;35840;45.982;8.890;2023-02-08T00:44:38;100308.47;;;1.14;62.37
49949;BME280;35840;45.982;8.890;2023-02-08T00:47:04;100314.31;;;1.07;62.72
49949;BME280;35840;45.982;8.890;2023-02-08T00:49:31;100320.19;;;1.06;62.94
49949;BME280;35840;45.982;8.890;2023-02-08T00:51:58;100304.28;;;1.16;61.97
49949;BME280;35840;45.982;8.890;2023-02-08T00:54:24;100318.72;;;1.25;61.91
49949;BME280;35840;45.982;8.890;2023-02-08T00:56:51;100313.66;;;1.25;61.68
49949;BME280;35840;45.982;8.890;2023-02-08T00:59:18;100312.03;;;1.32;61.71
49949;BME280;35840;45.982;8.890;2023-02-08T01:01:44;100316.25;;;1.34;61.37
49949;BME280;35840;45.982;8.890;2023-02-08T01:04:11;100311.16;;;1.30;61.16
49949;BME280;35840;45.982;8.890;2023-02-08T01:06:38;100308.59;;;1.25;60.82
49949;BME280;35840;45.982;8.890;2023-02-08T01:09:05;100311.13;;;1.28;61.28
49949;BME280;35840;45.982;8.890;2023-02-08T01:11:32;100315.28;;;1.20;61.37
49949;BME280;35840;45.982;8.890;2023-02-08T01:13:58;100316.16;;;1.22;61.08
49949;BME280;35840;45.982;8.890;2023-02-08T01:16:28;100314.41;;;1.16;61.90
49949;BME280;35840;45.982;8.890;2023-02-08T01:18:57;100318.59;;;1.14;61.60
49949;BME280;35840;45.982;8.890;2023-02-08T01:21:29;100320.28;;;1.11;61.28
49949;BME280;35840;45.982;8.890;2023-02-08T01:23:57;100312.69;;;1.11;61.29
49949;BME280;35840;45.982;8.890;2023-02-08T01:26:24;100315.13;;;1.03;62.18
49949;BME280;35840;45.982;8.890;2023-02-08T01:28:53;100310.94;;;1.05;61.51
49949;BME280;35840;45.982;8.890;2023-02-08T01:31:25;100314.25;;;0.98;61.50
49949;BME280;35840;45.982;8.890;2023-02-08T01:33:55;100309.97;;;0.92;61.80
49949;BME280;35840;45.982;8.890;2023-02-08T01:36:23;100314.97;;;0.91;61.54
49949;BME280;35840;45.982;8.890;2023-02-08T01:38:50;100315.81;;;0.87;61.99
49949;BME280;35840;45.982;8.890;2023-02-08T01:41:29;100311.63;;;0.92;61.33
49949;BME280;35840;45.982;8.890;2023-02-08T01:46:53;100310.66;;;0.80;62.89
49949;BME280;35840;45.982;8.890;2023-02-08T01:49:29;100303.09;;;0.83;64.23
49949;BME280;35840;45.982;8.890;2023-02-08T01:51:58;100306.50;;;0.87;62.60
49949;BME280;35840;45.982;8.890;2023-02-08T01:54:31;100299.81;;;0.92;62.92
49949;BME280;35840;45.982;8.890;2023-02-08T01:56:58;100304.06;;;0.95;62.33
49949;BME280;35840;45.982;8.890;2023-02-08T01:59:32;100299.03;;;0.98;62.31
49949;BME280;35840;45.982;8.890;2023-02-08T02:02:02;100301.63;;;1.04;61.42
49949;BME280;35840;45.982;8.890;2023-02-08T02:04:29;100299.88;;;0.97;61.28
49949;BME280;35840;45.982;8.890;2023-02-08T02:06:57;100281.06;;;0.76;61.65
49949;BME280;35840;45.982;8.890;2023-02-08T02:09:59;100302.25;;;0.83;62.37
49949;BME280;35840;45.982;8.890;2023-02-08T02:12:31;100308.13;;;0.80;62.58
49949;BME280;35840;45.982;8.890;2023-02-08T02:15:00;100303.03;;;0.77;61.86
49949;BME280;35840;45.982;8.890;2023-02-08T02:17:28;100300.63;;;0.88;61.20
49949;BME280;35840;45.982;8.890;2023-02-08T02:34:09;100305.59;;;0.82;61.87
49949;BME280;35840;45.982;8.890;2023-02-08T02:42:22;100308.03;;;0.70;62.11
49949;BME280;35840;45.982;8.890;2023-02-08T02:56:10;100298.59;;;0.58;62.14
49949;BME280;35840;45.982;8.890;2023-02-08T02:58:39;100297.56;;;0.42;62.49
49949;BME280;35840;45.982;8.890;2023-02-08T03:01:07;100306.00;;;0.42;62.88
49949;BME280;35840;45.982;8.890;2023-02-08T03:03:34;100295.97;;;0.50;61.80
49949;BME280;35840;45.982;8.890;2023-02-08T03:06:07;100301.81;;;0.44;62.13
49949;BME280;35840;45.982;8.890;2023-02-08T03:08:52;100301.00;;;0.47;62.69
49949;BME280;35840;45.982;8.890;2023-02-08T03:11:25;100298.50;;;0.50;62.24
49949;BME280;35840;45.982;8.890;2023-02-08T03:16:57;100295.00;;;0.37;62.04
49949;BME280;35840;45.982;8.890;2023-02-08T03:19:42;100296.75;;;0.43;63.06
49949;BME280;35840;45.982;8.890;2023-02-08T03:22:16;100305.13;;;0.40;62.52
49949;BME280;35840;45.982;8.890;2023-02-08T03:24:57;100295.88;;;0.44;61.60
49949;BME280;35840;45.982;8.890;2023-02-08T03:27:33;100302.47;;;0.31;61.95
49949;BME280;35840;45.982;8.890;2023-02-08T03:30:29;100304.09;;;0.24;62.13
49949;BME280;35840;45.982;8.890;2023-02-08T03:33:05;100302.34;;;0.20;63.22
49949;BME280;35840;45.982;8.890;2023-02-08T03:35:43;100298.94;;;0.18;62.92
49949;BME280;35840;45.982;8.890;2023-02-08T03:38:30;100285.53;;;0.25;63.64
49949;BME280;35840;45.982;8.890;2023-02-08T03:41:01;100306.69;;;0.30;62.32
49949;BME280;35840;45.982;8.890;2023-02-08T03:43:36;100309.22;;;0.30;62.58
49949;BME280;35840;45.982;8.890;2023-02-08T03:46:11;100310.00;;;0.25;62.38
49949;BME280;35840;45.982;8.890;2023-02-08T03:48:44;100307.50;;;0.28;63.07
49949;BME280;35840;45.982;8.890;2023-02-08T03:51:13;100312.56;;;0.28;62.61
49949;BME280;35840;45.982;8.890;2023-02-08T03:53:43;100299.97;;;0.34;62.32
49949;BME280;35840;45.982;8.890;2023-02-08T03:56:27;100292.19;;;0.17;61.61
49949;BME280;35840;45.982;8.890;2023-02-08T03:59:01;100304.81;;;0.17;61.61
49949;BME280;35840;45.982;8.890;2023-02-08T04:01:33;100299.03;;;0.24;61.64
49949;BME280;35840;45.982;8.890;2023-02-08T04:04:02;100308.25;;;0.21;62.04
49949;BME280;35840;45.982;8.890;2023-02-08T04:06:29;100304.00;;;0.18;62.33
49949;BME280;35840;45.982;8.890;2023-02-08T04:08:56;100297.16;;;0.09;62.79
49949;BME280;35840;45.982;8.890;2023-02-08T04:11:22;100283.72;;;0.15;61.71
49949;BME280;35840;45.982;8.890;2023-02-08T04:13:49;100291.38;;;0.20;61.77
49949;BME280;35840;45.982;8.890;2023-02-08T04:16:16;100288.75;;;0.12;62.35
49949;BME280;35840;45.982;8.890;2023-02-08T04:18:42;100279.50;;;0.14;60.79
49949;BME280;35840;45.982;8.890;2023-02-08T04:21:09;100282.88;;;0.13;61.85
49949;BME280;35840;45.982;8.890;2023-02-08T04:23:35;100281.16;;;0.10;60.57
49949;BME280;35840;45.982;8.890;2023-02-08T04:26:02;100285.22;;;-0.01;61.83
49949;BME280;35840;45.982;8.890;2023-02-08T04:28:29;100280.09;;;-0.06;62.87
49949;BME280;35840;45.982;8.890;2023-02-08T04:30:56;100286.03;;;-0.02;61.87
49949;BME280;35840;45.982;8.890;2023-02-08T04:33:23;100280.78;;;-0.14;62.53
49949;BME280;35840;45.982;8.890;2023-02-08T04:35:51;100263.94;;;-0.15;62.40
49949;BME280;35840;45.982;8.890;2023-02-08T04:38:17;100281.78;;;-0.05;62.49
49949;BME280;35840;45.982;8.890;2023-02-08T04:40:44;100287.75;;;0.01;61.30
49949;BME280;35840;45.982;8.890;2023-02-08T04:43:11;100252.09;;;-0.20;61.45
49949;BME280;35840;45.982;8.890;2023-02-08T04:45:37;100286.06;;;0.01;62.45
49949;BME280;35840;45.982;8.890;2023-02-08T04:48:04;100287.72;;;-0.04;62.83
49949;BME280;35840;45.982;8.890;2023-02-08T04:50:34;100262.84;;;-0.31;61.49
49949;BME280;35840;45.982;8.890;2023-02-08T04:53:01;100275.75;;;-0.13;62.11
49949;BME280;35840;45.982;8.890;2023-02-08T04:55:28;100277.53;;;-0.07;62.10
49949;BME280;35840;45.982;8.890;2023-02-08T04:57:54;100277.56;;;-0.06;61.62
49949;BME280;35840;45.982;8.890;2023-02-08T05:00:21;100276.69;;;-0.08;62.23
49949;BME280;35840;45.982;8.890;2023-02-08T05:02:54;100268.28;;;-0.07;62.28
49949;BME280;35840;45.982;8.890;2023-02-08T05:05:24;100271.56;;;-0.12;62.49
49949;BME280;35840;45.982;8.890;2023-02-08T05:07:51;100278.34;;;-0.11;61.85
49949;BME280;35840;45.982;8.890;2023-02-08T05:10:18;100273.28;;;-0.11;61.83
49949;BME280;35840;45.982;8.890;2023-02-08T05:12:45;100269.84;;;-0.15;61.95
49949;BME280;35840;45.982;8.890;2023-02-08T05:15:13;100275.59;;;-0.27;61.89
49949;BME280;35840;45.982;8.890;2023-02-08T05:17:39;100263.69;;;-0.34;62.48
49949;BME280;35840;45.982;8.890;2023-02-08T05:20:07;100265.47;;;-0.28;62.69
49949;BME280;35840;45.982;8.890;2023-02-08T05:22:34;100283.97;;;-0.28;62.52
49949;BME280;35840;45.982;8.890;2023-02-08T05:25:02;100272.91;;;-0.36;62.62
49949;BME280;35840;45.982;8.890;2023-02-08T05:27:28;100273.78;;;-0.34;62.98
49949;BME280;35840;45.982;8.890;2023-02-08T05:29:55;100250.00;;;-0.47;63.45
49949;BME280;35840;45.982;8.890;2023-02-08T05:32:24;100265.38;;;-0.33;62.86
49949;BME280;35840;45.982;8.890;2023-02-08T05:34:51;100276.53;;;-0.19;63.21
49949;BME280;35840;45.982;8.890;2023-02-08T05:37:18;100279.91;;;-0.18;62.49
49949;BME280;35840;45.982;8.890;2023-02-08T05:39:44;100255.28;;;-0.31;61.60
49949;BME280;35840;45.982;8.890;2023-02-08T05:42:11;100278.88;;;-0.32;62.47
49949;BME280;35840;45.982;8.890;2023-02-08T05:44:38;100271.38;;;-0.26;63.03
49949;BME280;35840;45.982;8.890;2023-02-08T05:47:05;100273.88;;;-0.28;61.42
49949;BME280;35840;45.982;8.890;2023-02-08T05:49:32;100283.94;;;-0.32;61.07
49949;BME280;35840;45.982;8.890;2023-02-08T05:51:58;100278.78;;;-0.37;62.76
49949;BME280;35840;45.982;8.890;2023-02-08T05:54:25;100278.78;;;-0.37;62.43
49949;BME280;35840;45.982;8.890;2023-02-08T05:56:52;100277.13;;;-0.37;62.97
49949;BME280;35840;45.982;8.890;2023-02-08T05:59:19;100285.53;;;-0.38;62.49
49949;BME280;35840;45.982;8.890;2023-02-08T06:01:45;100287.97;;;-0.44;63.11
49949;BME280;35840;45.982;8.890;2023-02-08T06:04:12;100289.63;;;-0.44;61.96
49949;BME280;35840;45.982;8.890;2023-02-08T06:06:40;100301.41;;;-0.45;63.39
49949;BME280;35840;45.982;8.890;2023-02-08T06:09:07;100309.69;;;-0.54;63.84
49949;BME280;35840;45.982;8.890;2023-02-08T06:11:33;100307.13;;;-0.57;63.26
49949;BME280;35840;45.982;8.890;2023-02-08T06:14:02;100307.28;;;-0.46;63.04
49949;BME280;35840;45.982;8.890;2023-02-08T06:16:28;100305.75;;;-0.36;62.32
49949;BME280;35840;45.982;8.890;2023-02-08T06:18:55;100309.22;;;-0.31;61.82
49949;BME280;35840;45.982;8.890;2023-02-08T06:21:22;100310.00;;;-0.35;62.98
49949;BME280;35840;45.982;8.890;2023-02-08T06:23:50;100295.59;;;-0.39;62.31
49949;BME280;35840;45.982;8.890;2023-02-08T06:26:16;100318.41;;;-0.35;63.34
49949;BME280;35840;45.982;8.890;2023-02-08T06:28:43;100308.16;;;-0.45;63.06
49949;BME280;35840;45.982;8.890;2023-02-08T06:31:10;100297.88;;;-0.55;62.81
49949;BME280;35840;45.982;8.890;2023-02-08T06:33:36;100307.22;;;-0.50;62.53
49949;BME280;35840;45.982;8.890;2023-02-08T06:36:03;100308.97;;;-0.46;61.88
49949;BME280;35840;45.982;8.890;2023-02-08T06:38:30;100303.88;;;-0.49;62.29
49949;BME280;35840;45.982;8.890;2023-02-08T06:40:56;100311.34;;;-0.56;61.76
49949;BME280;35840;45.982;8.890;2023-02-08T06:43:24;100307.94;;;-0.59;62.27
49949;BME280;35840;45.982;8.890;2023-02-08T06:45:51;100307.00;;;-0.63;64.39
49949;BME280;35840;45.982;8.890;2023-02-08T06:48:17;100302.00;;;-0.60;63.21
49949;BME280;35840;45.982;8.890;2023-02-08T06:50:44;100296.38;;;-0.45;64.02
49949;BME280;35840;45.982;8.890;2023-02-08T06:53:11;100299.69;;;-0.47;63.66
49949;BME280;35840;45.982;8.890;2023-02-08T06:55:37;100307.22;;;-0.50;63.59
49949;BME280;35840;45.982;8.890;2023-02-08T06:58:05;100307.94;;;-0.58;63.34
49949;BME280;35840;45.982;8.890;2023-02-08T07:00:31;100306.22;;;-0.60;65.20
49949;BME280;35840;45.982;8.890;2023-02-08T07:02:58;100300.38;;;-0.58;65.32
49949;BME280;35840;45.982;8.890;2023-02-08T07:05:26;100286.72;;;-0.69;65.39
49949;BME280;35840;45.982;8.890;2023-02-08T07:07:53;100306.50;;;-0.43;64.75
49949;BME280;35840;45.982;8.890;2023-02-08T07:10:20;100309.03;;;-0.42;64.85
49949;BME280;35840;45.982;8.890;2023-02-08T07:12:46;100311.44;;;-0.51;65.08
49949;BME280;35840;45.982;8.890;2023-02-08T07:15:13;100300.47;;;-0.52;65.75
49949;BME280;35840;45.982;8.890;2023-02-08T07:17:40;100308.34;;;-0.31;65.03
49949;BME280;35840;45.982;8.890;2023-02-08T07:20:07;100308.31;;;-0.33;65.20
49949;BME280;35840;45.982;8.890;2023-02-08T07:22:34;100310.00;;;-0.33;65.58
49949;BME280;35840;45.982;8.890;2023-02-08T07:25:00;100315.00;;;-0.38;66.73
49949;BME280;35840;45.982;8.890;2023-02-08T07:27:27;100315.81;;;-0.39;65.92
49949;BME280;35840;45.982;8.890;2023-02-08T07:29:54;100319.38;;;-0.26;65.88
49949;BME280;35840;45.982;8.890;2023-02-08T07:32:21;100308.53;;;-0.21;66.79
49949;BME280;35840;45.982;8.890;2023-02-08T07:34:48;100312.59;;;-0.29;66.52
49949;BME280;35840;45.982;8.890;2023-02-08T07:37:15;100309.31;;;-0.25;67.23
49949;BME280;35840;45.982;8.890;2023-02-08T07:39:41;100313.63;;;-0.18;67.56
49949;BME280;35840;45.982;8.890;2023-02-08T07:42:08;100304.50;;;-0.06;67.88
49949;BME280;35840;45.982;8.890;2023-02-08T07:44:47;100306.34;;;0.04;67.43
49949;BME280;35840;45.982;8.890;2023-02-08T07:47:14;100305.44;;;-0.01;67.88
49949;BME280;35840;45.982;8.890;2023-02-08T07:49:42;100307.06;;;-0.03;68.31
49949;BME280;35840;45.982;8.890;2023-02-08T07:52:09;100288.50;;;-0.08;68.04
49949;BME280;35840;45.982;8.890;2023-02-08T07:54:35;100308.97;;;0.10;68.19
49949;BME280;35840;45.982;8.890;2023-02-08T07:57:02;100305.69;;;0.17;67.46
49949;BME280;35840;45.982;8.890;2023-02-08T07:59:29;100298.00;;;0.11;68.63
49949;BME280;35840;45.982;8.890;2023-02-08T08:01:56;100305.56;;;0.08;68.48
49949;BME280;35840;45.982;8.890;2023-02-08T08:04:22;100303.03;;;0.10;69.00
49949;BME280;35840;45.982;8.890;2023-02-08T08:06:49;100303.16;;;0.16;69.24
49949;BME280;35840;45.982;8.890;2023-02-08T08:09:16;100293.06;;;0.19;69.82
49949;BME280;35840;45.982;8.890;2023-02-08T08:11:45;100286.31;;;0.20;70.14
49949;BME280;35840;45.982;8.890;2023-02-08T08:14:12;100293.22;;;0.30;68.88
49949;BME280;35840;45.982;8.890;2023-02-08T08:16:39;100292.50;;;0.42;68.94
49949;BME280;35840;45.982;8.890;2023-02-08T09:11:15;100286.31;;;0.93;68.47
49949;BME280;35840;45.982;8.890;2023-02-08T09:13:42;100275.41;;;1.02;67.99
49949;BME280;35840;45.982;8.890;2023-02-08T09:16:14;100277.13;;;1.03;67.59
49949;BME280;35840;45.982;8.890;2023-02-08T09:18:43;100283.06;;;1.05;66.72
49949;BME280;35840;45.982;8.890;2023-02-08T09:21:18;100286.44;;;1.07;65.53
49949;BME280;35840;45.982;8.890;2023-02-08T09:23:45;100278.84;;;1.06;65.48
49949;BME280;35840;45.982;8.890;2023-02-08T09:26:17;100275.38;;;0.97;66.14
49949;BME280;35840;45.982;8.890;2023-02-08T09:28:44;100276.19;;;0.96;64.83
49949;BME280;35840;45.982;8.890;2023-02-08T09:31:24;100277.06;;;0.95;64.59
49949;BME280;35840;45.982;8.890;2023-02-08T09:33:54;100272.78;;;0.88;64.95
49949;BME280;35840;45.982;8.890;2023-02-08T09:36:22;100263.53;;;0.93;65.26
49949;BME280;35840;45.982;8.890;2023-02-08T09:38:49;100274.59;;;1.01;64.74
49949;BME280;35840;45.982;8.890;2023-02-08T09:47:29;100279.78;;;1.15;63.01
49949;BME280;35840;45.982;8.890;2023-02-08T09:57:48;100279.00;;;1.24;63.45
49949;BME280;35840;45.982;8.890;2023-02-08T10:00:23;100281.63;;;1.32;62.72
49949;BME280;35840;45.982;8.890;2023-02-08T10:02:52;100276.59;;;1.36;62.32
49949;BME280;35840;45.982;8.890;2023-02-08T10:05:21;100268.97;;;1.36;62.59
49949;BME280;35840;45.982;8.890;2023-02-08T10:07:50;100265.66;;;1.44;61.84
49949;BME280;35840;45.982;8.890;2023-02-08T10:10:35;100275.00;;;1.54;61.16
49949;BME280;35840;45.982;8.890;2023-02-08T10:16:04;100262.34;;;1.54;61.28
49949;BME280;35840;45.982;8.890;2023-02-08T10:18:51;100273.41;;;1.68;59.46
49949;BME280;35840;45.982;8.890;2023-02-08T10:29:39;100267.63;;;1.86;58.57
49949;BME280;35840;45.982;8.890;2023-02-08T10:34:51;100261.75;;;1.94;56.50
49949;BME280;35840;45.982;8.890;2023-02-08T10:37:30;100265.16;;;1.97;55.98
49949;BME280;35840;45.982;8.890;2023-02-08T10:40:14;100255.03;;;2.05;56.67
49949;BME280;35840;45.982;8.890;2023-02-08T10:42:50;100247.44;;;2.11;56.11
49949;BME280;35840;45.982;8.890;2023-02-08T10:45:26;100257.59;;;2.05;55.93
49949;BME280;35840;45.982;8.890;2023-02-08T10:47:57;100251.69;;;2.09;56.20
49949;BME280;35840;45.982;8.890;2023-02-08T10:50:43;100249.16;;;2.12;56.11
49949;BME280;35840;45.982;8.890;2023-02-08T10:53:15;100242.41;;;2.14;55.62
49949;BME280;35840;45.982;8.890;2023-02-08T10:55:44;100237.34;;;2.17;56.31
49949;BME280;35840;45.982;8.890;2023-02-08T10:58:17;100250.91;;;2.24;55.74
49949;BME280;35840;45.982;8.890;2023-02-08T11:00:47;100244.97;;;2.23;55.76
49949;BME280;35840;45.982;8.890;2023-02-08T11:03:21;100246.69;;;2.21;56.00
49949;BME280;35840;45.982;8.890;2023-02-08T11:05:49;100239.09;;;2.32;56.73
49949;BME280;35840;45.982;8.890;2023-02-08T11:08:20;100235.72;;;2.35;55.86
49949;BME280;35840;45.982;8.890;2023-02-08T11:11:01;100234.88;;;2.42;55.19
49949;BME280;35840;45.982;8.890;2023-02-08T11:13:41;100224.78;;;2.47;54.59
49949;BME280;35840;45.982;8.890;2023-02-08T11:16:11;100217.19;;;2.79;53.43
49949;BME280;35840;45.982;8.890;2023-02-08T11:18:45;100224.00;;;3.08;52.20
49949;BME280;35840;45.982;8.890;2023-02-08T11:21:29;100214.69;;;3.04;50.87
49949;BME280;35840;45.982;8.890;2023-02-08T11:24:00;100210.44;;;2.92;51.61
49949;BME280;35840;45.982;8.890;2023-02-08T11:26:34;100216.38;;;2.89;51.95
49949;BME280;35840;45.982;8.890;2023-02-08T11:29:12;100212.16;;;3.04;51.96
49949;BME280;35840;45.982;8.890;2023-02-08T11:36:51;100201.13;;;3.42;47.38
49949;BME280;35840;45.982;8.890;2023-02-08T11:39:24;100182.44;;;3.52;48.17
49949;BME280;35840;45.982;8.890;2023-02-08T11:41:55;100190.03;;;3.69;45.57
49949;BME280;35840;45.982;8.890;2023-02-08T11:44:31;100196.81;;;3.73;44.13
49949;BME280;35840;45.982;8.890;2023-02-08T11:47:04;100195.97;;;3.73;43.88
49949;BME280;35840;45.982;8.890;2023-02-08T11:49:42;100186.66;;;3.59;42.58
49949;BME280;35840;45.982;8.890;2023-02-08T11:52:37;100185.78;;;3.79;44.42
49949;BME280;35840;45.982;8.890;2023-02-08T12:00:30;100189.91;;;4.14;43.05
49949;BME280;35840;45.982;8.890;2023-02-08T12:03:04;100181.44;;;4.06;42.27
49949;BME280;35840;45.982;8.890;2023-02-08T12:08:38;100179.75;;;4.02;41.20
49949;BME280;35840;45.982;8.890;2023-02-08T12:11:25;100181.47;;;3.96;41.87
49949;BME280;35840;45.982;8.890;2023-02-08T12:16:49;100172.91;;;4.16;42.71
49949;BME280;35840;45.982;8.890;2023-02-08T12:22:08;100160.13;;;4.22;43.21
49949;BME280;35840;45.982;8.890;2023-02-08T12:30:09;100166.84;;;4.37;40.94
49949;BME280;35840;45.982;8.890;2023-02-08T12:52:35;100130.44;;;4.26;41.02
49949;BME280;35840;45.982;8.890;2023-02-08T12:57:31;100111.63;;;4.45;42.82
49949;BME280;35840;45.982;8.890;2023-02-08T13:00:06;100108.97;;;4.62;41.88
49949;BME280;35840;45.982;8.890;2023-02-08T13:02:48;100108.00;;;4.76;42.49
49949;BME280;35840;45.982;8.890;2023-02-08T13:05:26;100105.41;;;4.79;40.40
49949;BME280;35840;45.982;8.890;2023-02-08T13:08:00;100096.88;;;4.88;40.64
49949;BME280;35840;45.982;8.890;2023-02-08T13:10:35;100097.63;;;4.96;41.00
49949;BME280;35840;45.982;8.890;2023-02-08T13:13:11;100099.38;;;4.92;40.30
49949;BME280;35840;45.982;8.890;2023-02-08T13:15:50;100084.94;;;4.91;40.81
49949;BME280;35840;45.982;8.890;2023-02-08T13:18:20;100086.53;;;5.00;41.18
49949;BME280;35840;45.982;8.890;2023-02-08T13:20:55;100088.16;;;5.09;40.43
49949;BME280;35840;45.982;8.890;2023-02-08T13:23:27;100083.06;;;5.10;39.96
49949;BME280;35840;45.982;8.890;2023-02-08T13:25:59;100091.44;;;5.22;40.51
49949;BME280;35840;45.982;8.890;2023-02-08T13:28:26;100079.56;;;5.19;39.44
49949;BME280;35840;45.982;8.890;2023-02-08T13:31:04;100082.94;;;5.21;39.05
49949;BME280;35840;45.982;8.890;2023-02-08T13:33:40;100069.41;;;5.13;39.50
49949;BME280;35840;45.982;8.890;2023-02-08T13:36:32;100074.47;;;5.19;40.05
49949;BME280;35840;45.982;8.890;2023-02-08T13:39:00;100075.19;;;5.32;39.26
49949;BME280;35840;45.982;8.890;2023-02-08T13:41:29;100075.22;;;5.29;39.90
49949;BME280;35840;45.982;8.890;2023-02-08T13:44:06;100060.06;;;5.15;38.96
49949;BME280;35840;45.982;8.890;2023-02-08T13:46:46;100074.44;;;5.22;39.37
49949;BME280;35840;45.982;8.890;2023-02-08T14:03:25;100068.19;;;5.46;37.76
49949;BME280;35840;45.982;8.890;2023-02-08T14:06:04;100057.97;;;5.48;38.75
49949;BME280;35840;45.982;8.890;2023-02-08T14:14:00;100057.75;;;5.66;38.60
49949;BME280;35840;45.982;8.890;2023-02-08T14:16:40;100064.53;;;5.67;38.15
49949;BME280;35840;45.982;8.890;2023-02-08T14:21:48;100068.84;;;5.62;38.89
49949;BME280;35840;45.982;8.890;2023-02-08T14:27:09;100068.03;;;5.60;36.23
49949;BME280;35840;45.982;8.890;2023-02-08T14:29:37;100080.72;;;5.65;37.60
49949;BME280;35840;45.982;8.890;2023-02-08T14:32:03;100073.84;;;5.72;38.13
49949;BME280;35840;45.982;8.890;2023-02-08T14:34:33;100074.66;;;5.74;38.20
49949;BME280;35840;45.982;8.890;2023-02-08T14:39:43;100075.47;;;5.77;37.90
49949;BME280;35840;45.982;8.890;2023-02-08T14:42:10;100077.97;;;5.82;37.58
49949;BME280;35840;45.982;8.890;2023-02-08T14:50:12;100075.50;;;5.76;37.58
49949;BME280;35840;45.982;8.890;2023-02-08T14:52:49;100065.34;;;5.71;35.15
49949;BME280;35840;45.982;8.890;2023-02-08T14:55:24;100061.13;;;5.68;35.43
49949;BME280;35840;45.982;8.890;2023-02-08T14:57:55;100079.00;;;5.67;34.76
49949;BME280;35840;45.982;8.890;2023-02-08T15:00:35;100075.56;;;5.69;34.89
49949;BME280;35840;45.982;8.890;2023-02-08T15:03:04;100084.09;;;5.68;35.90
49949;BME280;35840;45.982;8.890;2023-02-08T15:05:45;100081.50;;;5.72;35.88
49949;BME280;35840;45.982;8.890;2023-02-08T15:08:19;100086.66;;;5.68;35.50
49949;BME280;35840;45.982;8.890;2023-02-08T15:10:46;100084.94;;;5.69;33.98
49949;BME280;35840;45.982;8.890;2023-02-08T15:13:21;100085.78;;;5.68;35.00
49949;BME280;35840;45.982;8.890;2023-02-08T15:15:54;100095.13;;;5.71;36.05
49949;BME280;35840;45.982;8.890;2023-02-08T15:18:28;100088.38;;;5.65;34.39
49949;BME280;35840;45.982;8.890;2023-02-08T15:21:01;100076.59;;;5.56;34.68
49949;BME280;35840;45.982;8.890;2023-02-08T15:23:28;100077.41;;;5.58;34.95
49949;BME280;35840;45.982;8.890;2023-02-08T15:26:02;100079.13;;;5.58;35.17
49949;BME280;35840;45.982;8.890;2023-02-08T15:28:30;100080.84;;;5.57;36.11
49949;BME280;35840;45.982;8.890;2023-02-08T15:31:01;100089.41;;;5.50;35.18
49949;BME280;35840;45.982;8.890;2023-02-08T15:33:28;100094.47;;;5.55;35.84
49949;BME280;35840;45.982;8.890;2023-02-08T15:36:00;100095.47;;;5.40;35.24
49949;BME280;35840;45.982;8.890;2023-02-08T15:38:31;100098.91;;;5.37;34.60
49949;BME280;35840;45.982;8.890;2023-02-08T15:43:33;100098.34;;;5.12;35.45
49949;BME280;35840;45.982;8.890;2023-02-08T15:46:21;100093.41;;;4.92;35.21
49949;BME280;35840;45.982;8.890;2023-02-08T15:48:49;100106.19;;;4.87;35.81
49949;BME280;35840;45.982;8.890;2023-02-08T15:51:17;100077.53;;;4.62;34.90
49949;BME280;35840;45.982;8.890;2023-02-08T15:53:53;100108.00;;;4.74;35.30
49949;BME280;35840;45.982;8.890;2023-02-08T15:56:32;100108.94;;;4.65;35.08
49949;BME280;35840;45.982;8.890;2023-02-08T15:59:06;100108.97;;;4.61;35.03
49949;BME280;35840;45.982;8.890;2023-02-08T16:01:40;100109.03;;;4.52;36.65
49949;BME280;35840;45.982;8.890;2023-02-08T16:04:06;100115.81;;;4.53;35.50
49949;BME280;35840;45.982;8.890;2023-02-08T16:06:43;100114.13;;;4.50;36.08
49949;BME280;35840;45.982;8.890;2023-02-08T16:09:20;100117.56;;;4.46;36.24
49949;BME280;35840;45.982;8.890;2023-02-08T16:11:48;100132.91;;;4.35;37.42
49949;BME280;35840;45.982;8.890;2023-02-08T16:14:17;100127.81;;;4.35;36.82
49949;BME280;35840;45.982;8.890;2023-02-08T16:16:48;100133.75;;;4.36;38.08
49949;BME280;35840;45.982;8.890;2023-02-08T16:21:47;100126.19;;;4.23;37.81
49949;BME280;35840;45.982;8.890;2023-02-08T16:26:43;100133.03;;;4.20;37.22
49949;BME280;35840;45.982;8.890;2023-02-08T16:29:19;100142.38;;;4.13;37.87
49949;BME280;35840;45.982;8.890;2023-02-08T16:31:48;100144.06;;;4.14;37.73
49949;BME280;35840;45.982;8.890;2023-02-08T16:34:21;100139.84;;;4.13;37.69
49949;BME280;35840;45.982;8.890;2023-02-08T16:36:50;100147.50;;;4.10;37.08
49949;BME280;35840;45.982;8.890;2023-02-08T16:44:59;100157.69;;;4.04;37.85